createdAt,value
2023-01-17T00:00:33.811Z,0.00
2023-01-17T00:01:33.863Z,0.00
2023-01-17T00:02:33.865Z,0.00
2023-01-17T00:03:33.787Z,0.00
2023-01-17T00:04:33.741Z,0.00
2023-01-17T00:05:33.772Z,0.00
2023-01-17T00:06:33.743Z,0.00
2023-01-17T00:07:33.743Z,0.00
2023-01-17T00:08:33.793Z,0.00
2023-01-17T00:09:33.725Z,0.00
2023-01-17T00:10:33.682Z,0.00
2023-01-17T00:11:33.704Z,0.00
2023-01-17T00:12:33.655Z,0.00
2023-01-17T00:13:33.644Z,0.00
2023-01-17T00:14:33.656Z,0.00
2023-01-17T00:15:33.671Z,0.00
2023-01-17T00:16:33.658Z,0.00
2023-01-17T00:17:34.269Z,0.00
2023-01-17T00:18:33.576Z,0.00
2023-01-17T00:19:33.570Z,0.00
2023-01-17T00:20:33.592Z,0.00
2023-01-17T00:21:34.262Z,0.00
2023-01-17T00:22:33.587Z,0.00
2023-01-17T00:23:33.575Z,0.00
2023-01-17T00:24:33.561Z,0.00
2023-01-17T00:25:33.528Z,0.00
2023-01-17T00:26:33.496Z,0.00
2023-01-17T00:27:33.553Z,0.00
2023-01-17T00:28:33.608Z,0.00
2023-01-17T00:29:33.483Z,0.00
2023-01-17T00:30:33.513Z,0.00
2023-01-17T00:31:33.495Z,0.00
2023-01-17T00:32:33.470Z,0.00
2023-01-17T00:33:34.470Z,0.00
2023-01-17T00:34:33.413Z,0.00
2023-01-17T00:35:33.400Z,0.00
2023-01-17T00:36:33.393Z,0.00
2023-01-17T00:37:33.419Z,0.00
2023-01-17T00:38:33.401Z,0.00
2023-01-17T00:39:33.501Z,0.00
2023-01-17T00:40:33.423Z,0.00
2023-01-17T00:41:33.433Z,0.00
2023-01-17T00:42:33.423Z,0.00
2023-01-17T00:43:33.370Z,0.00
2023-01-17T00:44:33.408Z,0.00
2023-01-17T00:45:33.364Z,0.00
2023-01-17T00:46:33.409Z,0.00
2023-01-17T00:47:33.303Z,0.00
2023-01-17T00:48:33.311Z,0.00
2023-01-17T00:49:33.312Z,0.00
2023-01-17T00:50:33.303Z,0.00
2023-01-17T00:51:33.307Z,0.00
2023-01-17T00:52:33.309Z,0.00
2023-01-17T00:53:33.308Z,0.00
2023-01-17T00:54:33.242Z,0.00
2023-01-17T00:55:33.263Z,0.00
2023-01-17T00:56:33.259Z,0.00
2023-01-17T00:57:33.213Z,0.00
2023-01-17T00:58:33.235Z,0.00
2023-01-17T00:59:33.249Z,0.00
2023-01-17T01:00:33.324Z,0.00
2023-01-17T01:01:33.239Z,0.00
2023-01-17T01:02:33.226Z,0.00
2023-01-17T01:03:33.174Z,0.00
2023-01-17T01:04:33.207Z,0.00
2023-01-17T01:05:33.138Z,0.00
2023-01-17T01:06:33.229Z,0.00
2023-01-17T01:07:33.090Z,0.00
2023-01-17T01:08:33.060Z,0.00
2023-01-17T01:09:33.155Z,0.00
2023-01-17T01:10:33.071Z,0.00
2023-01-17T01:11:33.101Z,0.00
2023-01-17T01:12:33.072Z,0.00
2023-01-17T01:13:33.075Z,0.00
2023-01-17T01:14:33.044Z,0.00
2023-01-17T01:15:33.136Z,0.00
2023-01-17T01:16:33.077Z,0.00
2023-01-17T01:17:33.062Z,0.00
2023-01-17T01:18:33.012Z,0.00
2023-01-17T01:19:33.008Z,0.00
2023-01-17T01:20:32.957Z,0.00
2023-01-17T01:21:32.964Z,0.00
2023-01-17T01:22:32.985Z,0.00
2023-01-17T01:23:32.949Z,0.00
2023-01-17T01:24:32.932Z,0.00
2023-01-17T01:25:32.924Z,0.00
2023-01-17T01:26:32.931Z,0.00
2023-01-17T01:27:32.954Z,0.00
2023-01-17T01:28:32.908Z,0.00
2023-01-17T01:29:32.897Z,0.00
2023-01-17T01:30:32.927Z,0.00
2023-01-17T01:31:32.879Z,0.00
2023-01-17T01:32:32.843Z,0.00
2023-01-17T01:33:32.863Z,0.00
2023-01-17T01:34:32.871Z,0.00
2023-01-17T01:35:32.834Z,0.00
2023-01-17T01:36:32.844Z,0.00
2023-01-17T01:37:32.794Z,0.00
2023-01-17T01:38:32.832Z,0.00
2023-01-17T01:39:32.789Z,0.00
2023-01-17T01:40:33.360Z,0.00
2023-01-17T01:41:32.762Z,0.00
2023-01-17T01:42:32.753Z,0.00
2023-01-17T01:43:32.811Z,0.00
2023-01-17T01:44:32.725Z,0.00
2023-01-17T01:45:32.808Z,0.00
2023-01-17T01:46:32.737Z,0.00
2023-01-17T01:47:33.407Z,0.00
2023-01-17T01:48:32.694Z,0.00
2023-01-17T01:49:32.677Z,0.00
2023-01-17T01:50:32.677Z,0.00
2023-01-17T01:51:32.631Z,0.00
2023-01-17T01:52:32.659Z,0.00
2023-01-17T01:53:32.618Z,0.00
2023-01-17T01:54:32.614Z,0.00
2023-01-17T01:55:32.635Z,0.00
2023-01-17T01:56:32.616Z,0.00
2023-01-17T01:57:32.581Z,0.00
2023-01-17T01:58:32.580Z,0.00
2023-01-17T01:59:32.562Z,0.00
2023-01-17T02:00:32.582Z,0.00
2023-01-17T02:01:32.692Z,0.00
2023-01-17T02:02:32.567Z,0.00
2023-01-17T02:03:32.589Z,0.00
2023-01-17T02:04:32.540Z,0.00
2023-01-17T02:05:32.517Z,0.00
2023-01-17T02:06:32.490Z,0.00
2023-01-17T02:07:32.454Z,0.00
2023-01-17T02:08:32.510Z,0.00
2023-01-17T02:09:32.468Z,0.00
2023-01-17T02:10:32.455Z,0.00
2023-01-17T02:11:32.464Z,0.00
2023-01-17T02:12:32.461Z,0.00
2023-01-17T02:13:32.434Z,0.00
2023-01-17T02:14:32.395Z,0.00
2023-01-17T02:15:32.389Z,0.00
2023-01-17T02:16:32.426Z,0.00
2023-01-17T02:17:32.405Z,0.00
2023-01-17T02:18:33.239Z,0.00
2023-01-17T02:19:32.386Z,0.00
2023-01-17T02:20:32.392Z,0.00
2023-01-17T02:21:32.336Z,0.00
2023-01-17T02:22:32.413Z,0.00
2023-01-17T02:23:32.331Z,0.00
2023-01-17T02:24:32.262Z,0.00
2023-01-17T02:25:32.283Z,0.00
2023-01-17T02:26:32.282Z,0.00
2023-01-17T02:27:32.295Z,0.00
2023-01-17T02:28:32.244Z,0.00
2023-01-17T02:29:32.261Z,0.00
2023-01-17T02:30:32.250Z,0.00
2023-01-17T02:31:32.260Z,0.00
2023-01-17T02:32:32.230Z,0.00
2023-01-17T02:33:32.244Z,0.00
2023-01-17T02:34:32.203Z,0.00
2023-01-17T02:35:32.171Z,0.00
2023-01-17T02:36:32.163Z,0.00
2023-01-17T02:37:32.140Z,0.00
2023-01-17T02:38:32.200Z,0.00
2023-01-17T02:39:32.167Z,0.00
2023-01-17T02:40:32.127Z,0.00
2023-01-17T02:41:32.876Z,0.00
2023-01-17T02:42:32.143Z,0.00
2023-01-17T02:43:32.188Z,0.00
2023-01-17T02:44:32.121Z,0.00
2023-01-17T02:45:32.105Z,0.00
2023-01-17T02:46:32.111Z,0.00
2023-01-17T02:47:32.078Z,0.00
2023-01-17T02:48:32.084Z,0.00
2023-01-17T02:49:32.075Z,0.00
2023-01-17T02:50:32.060Z,0.00
2023-01-17T02:51:32.034Z,0.00
2023-01-17T02:52:32.013Z,0.00
2023-01-17T02:53:31.983Z,0.00
2023-01-17T02:54:31.996Z,0.00
2023-01-17T02:55:31.977Z,0.00
2023-01-17T02:56:32.699Z,0.00
2023-01-17T02:57:31.930Z,0.00
2023-01-17T02:58:31.943Z,0.00
2023-01-17T02:59:32.848Z,0.00
2023-01-17T03:00:31.890Z,0.00
2023-01-17T03:01:32.097Z,0.00
2023-01-17T03:02:32.026Z,0.00
2023-01-17T03:03:31.863Z,0.00
2023-01-17T03:04:31.890Z,0.00
2023-01-17T03:05:31.860Z,0.00
2023-01-17T03:06:31.842Z,0.00
2023-01-17T03:07:31.870Z,0.00
2023-01-17T03:08:31.846Z,0.00
2023-01-17T03:09:31.830Z,0.00
2023-01-17T03:10:31.794Z,0.00
2023-01-17T03:11:31.822Z,0.00
2023-01-17T03:12:31.779Z,0.00
2023-01-17T03:13:31.809Z,0.00
2023-01-17T03:14:31.797Z,0.00
2023-01-17T03:15:31.754Z,0.00
2023-01-17T03:16:31.787Z,0.00
2023-01-17T03:17:31.783Z,0.00
2023-01-17T03:18:31.769Z,0.00
2023-01-17T03:19:31.736Z,0.00
2023-01-17T03:20:31.725Z,0.00
2023-01-17T03:21:31.722Z,0.00
2023-01-17T03:22:31.645Z,0.00
2023-01-17T03:23:31.650Z,0.00
2023-01-17T03:24:31.688Z,0.00
2023-01-17T03:25:31.637Z,0.00
2023-01-17T03:26:31.680Z,0.00
2023-01-17T03:27:31.644Z,0.00
2023-01-17T03:28:31.646Z,0.00
2023-01-17T03:29:31.677Z,0.00
2023-01-17T03:30:31.631Z,0.00
2023-01-17T03:31:31.553Z,0.00
2023-01-17T03:32:31.553Z,0.00
2023-01-17T03:33:31.575Z,0.00
2023-01-17T03:34:31.615Z,0.00
2023-01-17T03:35:31.553Z,0.00
2023-01-17T03:36:31.532Z,0.00
2023-01-17T03:37:31.584Z,0.00
2023-01-17T03:38:31.521Z,0.00
2023-01-17T03:39:31.503Z,0.00
2023-01-17T03:40:31.485Z,0.00
2023-01-17T03:41:31.530Z,0.00
2023-01-17T03:42:31.575Z,0.00
2023-01-17T03:43:31.482Z,0.00
2023-01-17T03:44:31.423Z,0.00
2023-01-17T03:45:31.476Z,0.00
2023-01-17T03:46:31.405Z,0.00
2023-01-17T03:47:31.412Z,0.00
2023-01-17T03:48:31.457Z,0.00
2023-01-17T03:49:31.397Z,0.00
2023-01-17T03:50:31.442Z,0.00
2023-01-17T03:51:31.400Z,0.00
2023-01-17T03:52:31.360Z,0.00
2023-01-17T03:53:31.394Z,0.00
2023-01-17T03:54:31.424Z,0.00
2023-01-17T03:55:31.320Z,0.00
2023-01-17T03:56:31.352Z,0.00
2023-01-17T03:57:31.301Z,0.00
2023-01-17T03:58:31.295Z,0.00
2023-01-17T03:59:31.292Z,0.00
2023-01-17T04:00:31.371Z,0.00
2023-01-17T04:01:31.396Z,0.00
2023-01-17T04:02:31.293Z,0.00
2023-01-17T04:03:31.209Z,0.00
2023-01-17T04:04:31.262Z,0.00
2023-01-17T04:05:31.208Z,0.00
2023-01-17T04:06:31.238Z,0.00
2023-01-17T04:07:31.213Z,0.00
2023-01-17T04:08:31.213Z,0.00
2023-01-17T04:09:31.144Z,0.00
2023-01-17T04:10:31.196Z,0.00
2023-01-17T04:11:31.172Z,0.00
2023-01-17T04:12:31.157Z,0.00
2023-01-17T04:13:31.150Z,0.00
2023-01-17T04:14:31.136Z,0.00
2023-01-17T04:15:31.101Z,0.00
2023-01-17T04:16:31.159Z,0.00
2023-01-17T04:17:31.092Z,0.00
2023-01-17T04:18:31.073Z,0.00
2023-01-17T04:19:31.104Z,0.00
2023-01-17T04:20:31.074Z,0.00
2023-01-17T04:21:31.099Z,0.00
2023-01-17T04:22:31.045Z,0.00
2023-01-17T04:23:31.075Z,0.00
2023-01-17T04:24:31.027Z,0.00
2023-01-17T04:25:37.757Z,0.00
2023-01-17T04:26:31.045Z,0.00
2023-01-17T04:27:30.974Z,0.00
2023-01-17T04:28:30.961Z,0.00
2023-01-17T04:29:30.963Z,0.00
2023-01-17T04:30:31.014Z,0.00
2023-01-17T04:31:31.022Z,0.00
2023-01-17T04:32:30.997Z,0.00
2023-01-17T04:33:30.964Z,0.00
2023-01-17T04:34:30.993Z,0.00
2023-01-17T04:35:30.900Z,0.00
2023-01-17T04:36:30.910Z,0.00
2023-01-17T04:37:30.848Z,0.00
2023-01-17T04:38:30.920Z,0.00
2023-01-17T04:39:31.028Z,0.00
2023-01-17T04:40:30.975Z,0.00
2023-01-17T04:41:30.913Z,0.00
2023-01-17T04:42:30.863Z,0.00
2023-01-17T04:43:30.868Z,0.00
2023-01-17T04:44:30.893Z,0.00
2023-01-17T04:45:30.918Z,0.00
2023-01-17T04:46:30.884Z,0.00
2023-01-17T04:47:30.783Z,0.00
2023-01-17T04:48:30.874Z,0.00
2023-01-17T04:49:30.796Z,0.00
2023-01-17T04:50:30.817Z,0.00
2023-01-17T04:51:30.788Z,0.00
2023-01-17T04:52:30.719Z,0.00
2023-01-17T04:53:30.755Z,0.00
2023-01-17T04:54:30.712Z,0.00
2023-01-17T04:55:30.909Z,0.00
2023-01-17T04:56:30.743Z,0.00
2023-01-17T04:57:30.746Z,0.00
2023-01-17T04:58:30.659Z,0.00
2023-01-17T04:59:30.676Z,0.00
2023-01-17T05:00:30.736Z,0.00
2023-01-17T05:01:30.763Z,0.00
2023-01-17T05:02:30.698Z,0.00
2023-01-17T05:03:30.641Z,0.00
2023-01-17T05:04:30.698Z,0.00
2023-01-17T05:05:30.650Z,0.00
2023-01-17T05:06:30.638Z,0.00
2023-01-17T05:07:30.587Z,0.00
2023-01-17T05:08:30.591Z,0.00
2023-01-17T05:09:30.608Z,0.00
2023-01-17T05:10:30.641Z,0.00
2023-01-17T05:11:30.652Z,0.00
2023-01-17T05:12:30.659Z,0.00
2023-01-17T05:13:30.550Z,0.00
2023-01-17T05:14:30.593Z,0.00
2023-01-17T05:15:30.526Z,0.00
2023-01-17T05:16:30.545Z,0.00
2023-01-17T05:17:30.485Z,0.00
2023-01-17T05:18:30.594Z,0.00
2023-01-17T05:19:31.353Z,0.00
2023-01-17T05:20:30.544Z,0.00
2023-01-17T05:21:30.465Z,0.00
2023-01-17T05:22:30.592Z,0.00
2023-01-17T05:23:30.481Z,0.00
2023-01-17T05:24:30.462Z,0.00
2023-01-17T05:25:30.406Z,0.00
2023-01-17T05:26:30.448Z,0.00
2023-01-17T05:27:30.428Z,0.00
2023-01-17T05:28:30.552Z,0.00
2023-01-17T05:29:30.544Z,0.00
2023-01-17T05:30:30.344Z,0.00
2023-01-17T05:31:30.379Z,0.00
2023-01-17T05:32:30.456Z,0.00
2023-01-17T05:33:30.397Z,0.00
2023-01-17T05:34:30.369Z,0.00
2023-01-17T05:35:30.294Z,0.00
2023-01-17T05:36:30.331Z,0.00
2023-01-17T05:37:30.340Z,0.00
2023-01-17T05:38:30.244Z,0.00
2023-01-17T05:39:30.268Z,0.00
2023-01-17T05:40:30.306Z,0.00
2023-01-17T05:41:30.297Z,0.00
2023-01-17T05:42:30.241Z,0.00
2023-01-17T05:43:30.253Z,0.00
2023-01-17T05:44:30.282Z,0.00
2023-01-17T05:45:30.176Z,0.00
2023-01-17T05:46:30.207Z,0.00
2023-01-17T05:47:30.145Z,0.00
2023-01-17T05:48:30.158Z,0.00
2023-01-17T05:49:30.173Z,0.00
2023-01-17T05:50:30.212Z,0.00
2023-01-17T05:51:30.146Z,0.00
2023-01-17T05:52:30.147Z,0.00
2023-01-17T05:53:30.223Z,0.00
2023-01-17T05:54:30.215Z,0.00
2023-01-17T05:55:30.182Z,0.00
2023-01-17T05:56:30.098Z,0.00
2023-01-17T05:57:30.131Z,0.00
2023-01-17T05:58:30.067Z,0.00
2023-01-17T05:59:36.969Z,0.00
2023-01-17T06:00:31.093Z,0.00
2023-01-17T06:01:30.139Z,0.00
2023-01-17T06:02:30.123Z,0.00
2023-01-17T06:03:30.067Z,0.00
2023-01-17T06:04:30.070Z,0.00
2023-01-17T06:05:30.104Z,0.00
2023-01-17T06:06:30.134Z,0.00
2023-01-17T06:07:29.963Z,0.00
2023-01-17T06:08:30.006Z,0.00
2023-01-17T06:09:30.061Z,0.00
2023-01-17T06:10:29.935Z,0.00
2023-01-17T06:11:29.960Z,0.00
2023-01-17T06:12:29.890Z,0.00
2023-01-17T06:13:29.914Z,0.00
2023-01-17T06:14:29.920Z,0.00
2023-01-17T06:15:29.917Z,0.00
2023-01-17T06:16:29.883Z,0.00
2023-01-17T06:17:30.042Z,0.00
2023-01-17T06:18:29.927Z,0.00
2023-01-17T06:19:30.040Z,0.00
2023-01-17T06:20:29.929Z,0.00
2023-01-17T06:21:29.908Z,0.00
2023-01-17T06:22:29.914Z,0.00
2023-01-17T06:23:29.909Z,0.00
2023-01-17T06:24:29.950Z,0.00
2023-01-17T06:25:29.924Z,0.00
2023-01-17T06:26:29.934Z,0.00
2023-01-17T06:27:29.952Z,0.00
2023-01-17T06:28:29.856Z,0.00
2023-01-17T06:29:29.841Z,0.00
2023-01-17T06:30:29.797Z,0.00
2023-01-17T06:31:29.815Z,0.00
2023-01-17T06:32:29.746Z,0.00
2023-01-17T06:33:29.766Z,0.00
2023-01-17T06:34:29.713Z,0.00
2023-01-17T06:35:29.688Z,0.00
2023-01-17T06:36:29.720Z,0.00
2023-01-17T06:37:29.667Z,0.00
2023-01-17T06:38:29.739Z,0.00
2023-01-17T06:39:29.837Z,0.00
2023-01-17T06:40:29.615Z,0.00
2023-01-17T06:41:29.647Z,0.00
2023-01-17T06:42:29.666Z,0.00
2023-01-17T06:43:29.645Z,0.00
2023-01-17T06:44:29.644Z,0.00
2023-01-17T06:45:29.710Z,0.00
2023-01-17T06:46:29.746Z,0.00
2023-01-17T06:47:29.581Z,4.00
2023-01-17T06:48:29.551Z,4.00
2023-01-17T06:49:29.570Z,0.00
2023-01-17T06:50:29.554Z,0.00
2023-01-17T06:51:29.541Z,4.00
2023-01-17T06:52:29.531Z,0.00
2023-01-17T06:53:29.493Z,4.00
2023-01-17T06:54:29.550Z,4.00
2023-01-17T06:55:29.485Z,8.00
2023-01-17T06:56:29.511Z,8.00
2023-01-17T06:57:29.512Z,8.00
2023-01-17T06:58:30.109Z,12.00
2023-01-17T06:59:29.479Z,12.00
2023-01-17T07:00:40.947Z,16.00
2023-01-17T07:01:30.528Z,16.00
2023-01-17T07:02:29.460Z,20.00
2023-01-17T07:03:29.466Z,20.00
2023-01-17T07:04:29.417Z,24.00
2023-01-17T07:05:29.432Z,20.00
2023-01-17T07:06:29.325Z,24.00
2023-01-17T07:07:29.370Z,28.00
2023-01-17T07:08:29.390Z,32.00
2023-01-17T07:09:29.310Z,36.00
2023-01-17T07:10:29.261Z,40.00
2023-01-17T07:11:29.314Z,40.00
2023-01-17T07:12:29.330Z,48.00
2023-01-17T07:13:29.275Z,56.00
2023-01-17T07:14:29.308Z,68.00
2023-01-17T07:15:29.236Z,80.00
2023-01-17T07:16:29.333Z,80.00
2023-01-17T07:17:29.871Z,88.00
2023-01-17T07:18:29.241Z,96.00
2023-01-17T07:19:29.352Z,104.00
2023-01-17T07:20:29.225Z,108.00
2023-01-17T07:21:29.223Z,112.00
2023-01-17T07:22:29.206Z,100.00
2023-01-17T07:23:29.840Z,104.00
2023-01-17T07:24:29.166Z,132.00
2023-01-17T07:25:29.164Z,164.00
2023-01-17T07:26:29.115Z,188.00
2023-01-17T07:27:29.139Z,196.00
2023-01-17T07:28:29.160Z,228.00
2023-01-17T07:29:29.150Z,260.00
2023-01-17T07:30:29.083Z,288.00
2023-01-17T07:31:29.129Z,320.00
2023-01-17T07:32:29.086Z,364.00
2023-01-17T07:33:29.052Z,412.00
2023-01-17T07:34:29.052Z,460.00
2023-01-17T07:35:29.023Z,512.00
2023-01-17T07:36:29.027Z,552.00
2023-01-17T07:37:29.040Z,580.00
2023-01-17T07:38:28.983Z,624.00
2023-01-17T07:39:28.972Z,668.00
2023-01-17T07:40:28.960Z,724.00
2023-01-17T07:41:28.965Z,796.00
2023-01-17T07:42:28.989Z,832.00
2023-01-17T07:44:02.391Z,820.00
2023-01-17T07:45:01.325Z,808.00
2023-01-17T07:45:28.909Z,840.00
2023-01-17T07:46:28.933Z,900.00
2023-01-17T07:47:28.909Z,924.00
2023-01-17T07:48:28.915Z,888.00
2023-01-17T07:49:28.884Z,872.00
2023-01-17T07:50:28.883Z,872.00
2023-01-17T07:51:28.899Z,916.00
2023-01-17T07:52:28.838Z,960.00
2023-01-17T07:53:28.802Z,932.00
2023-01-17T07:54:28.867Z,896.00
2023-01-17T07:55:28.816Z,900.00
2023-01-17T07:56:28.808Z,892.00
2023-01-17T07:57:28.822Z,932.00
2023-01-17T07:58:28.784Z,964.00
2023-01-17T07:59:28.746Z,964.00
2023-01-17T08:00:28.769Z,1028.00
2023-01-17T08:01:28.827Z,1088.00
2023-01-17T08:02:28.780Z,1092.00
2023-01-17T08:03:28.767Z,1172.00
2023-01-17T08:04:28.788Z,1340.00
2023-01-17T08:05:28.744Z,1644.00
2023-01-17T08:06:28.701Z,1648.00
2023-01-17T08:07:28.734Z,7316.00
2023-01-17T08:08:28.680Z,5756.00
2023-01-17T08:09:28.695Z,4652.00
2023-01-17T08:10:28.685Z,1920.00
2023-01-17T08:11:28.628Z,1504.00
2023-01-17T08:12:28.639Z,1536.00
2023-01-17T08:13:29.936Z,1636.00
2023-01-17T08:14:29.616Z,1928.00
2023-01-17T08:15:28.608Z,2100.00
2023-01-17T08:16:28.728Z,2100.00
2023-01-17T08:17:29.314Z,2164.00
2023-01-17T08:18:29.290Z,2356.00
2023-01-17T08:19:28.571Z,2760.00
2023-01-17T08:20:28.594Z,4196.00
2023-01-17T08:21:28.541Z,14336.00
2023-01-17T08:22:28.542Z,17280.00
2023-01-17T08:23:28.531Z,9532.00
2023-01-17T08:24:28.534Z,2264.00
2023-01-17T08:25:28.502Z,2036.00
2023-01-17T08:26:28.519Z,2496.00
2023-01-17T08:27:28.501Z,2332.00
2023-01-17T08:28:28.480Z,2332.00
2023-01-17T08:29:28.482Z,2020.00
2023-01-17T08:30:28.443Z,2016.00
2023-01-17T08:31:28.486Z,12176.00
2023-01-17T08:32:28.422Z,2080.00
2023-01-17T08:33:28.496Z,1852.00
2023-01-17T08:34:28.399Z,1672.00
2023-01-17T08:35:28.420Z,1692.00
2023-01-17T08:36:28.385Z,1660.00
2023-01-17T08:37:28.383Z,1620.00
2023-01-17T08:38:28.360Z,1556.00
2023-01-17T08:39:28.380Z,1536.00
2023-01-17T08:40:28.363Z,1508.00
2023-01-17T08:41:28.352Z,1528.00
2023-01-17T08:42:28.310Z,1488.00
2023-01-17T08:43:28.347Z,1420.00
2023-01-17T08:44:28.295Z,1408.00
2023-01-17T08:45:28.376Z,1392.00
2023-01-17T08:46:28.252Z,1404.00
2023-01-17T08:47:28.263Z,1504.00
2023-01-17T08:48:29.205Z,1588.00
2023-01-17T08:49:28.802Z,1636.00
2023-01-17T08:50:28.211Z,1636.00
2023-01-17T08:51:28.218Z,1620.00
2023-01-17T08:52:28.208Z,1656.00
2023-01-17T08:53:28.232Z,1704.00
2023-01-17T08:54:28.808Z,1748.00
2023-01-17T08:55:28.223Z,1776.00
2023-01-17T08:56:28.207Z,1856.00
2023-01-17T08:57:28.147Z,2068.00
2023-01-17T08:58:30.311Z,2180.00
2023-01-17T08:59:28.132Z,2256.00
2023-01-17T09:00:28.116Z,2312.00
2023-01-17T09:01:28.327Z,2260.00
2023-01-17T09:02:28.142Z,2264.00
2023-01-17T09:03:28.083Z,2176.00
2023-01-17T09:04:28.154Z,2068.00
2023-01-17T09:05:28.087Z,2012.00
2023-01-17T09:06:28.782Z,2116.00
2023-01-17T09:07:28.085Z,2240.00
2023-01-17T09:08:28.024Z,2356.00
2023-01-17T09:09:28.040Z,2656.00
2023-01-17T09:10:28.044Z,2924.00
2023-01-17T09:11:28.058Z,3208.00
2023-01-17T09:12:28.012Z,3432.00
2023-01-17T09:13:28.093Z,3716.00
2023-01-17T09:14:27.992Z,4052.00
2023-01-17T09:15:27.985Z,4184.00
2023-01-17T09:16:28.014Z,3732.00
2023-01-17T09:17:27.955Z,3552.00
2023-01-17T09:18:27.968Z,3832.00
2023-01-17T09:19:27.964Z,3996.00
2023-01-17T09:20:27.941Z,3992.00
2023-01-17T09:21:27.927Z,3828.00
2023-01-17T09:22:27.938Z,3816.00
2023-01-17T09:23:27.985Z,3820.00
2023-01-17T09:24:27.886Z,3988.00
2023-01-17T09:25:27.876Z,4276.00
2023-01-17T09:26:27.877Z,4676.00
2023-01-17T09:27:27.858Z,5004.00
2023-01-17T09:28:27.887Z,5072.00
2023-01-17T09:29:27.883Z,5100.00
2023-01-17T09:30:27.851Z,5284.00
2023-01-17T09:31:27.847Z,5816.00
2023-01-17T09:32:27.807Z,6248.00
2023-01-17T09:33:27.791Z,6336.00
2023-01-17T09:34:27.834Z,6292.00
2023-01-17T09:35:27.759Z,6412.00
2023-01-17T09:36:27.733Z,6468.00
2023-01-17T09:37:27.757Z,6392.00
2023-01-17T09:38:27.756Z,6228.00
2023-01-17T09:39:27.810Z,6240.00
2023-01-17T09:40:27.724Z,6616.00
2023-01-17T09:41:27.861Z,7312.00
2023-01-17T09:42:27.679Z,8124.00
2023-01-17T09:43:28.666Z,8972.00
2023-01-17T09:44:27.678Z,9996.00
2023-01-17T09:45:27.707Z,11320.00
2023-01-17T09:46:27.636Z,13424.00
2023-01-17T09:47:27.715Z,19968.00
2023-01-17T09:48:27.628Z,18080.00
2023-01-17T09:49:27.619Z,20352.00
2023-01-17T09:50:27.612Z,55200.00
2023-01-17T09:51:27.615Z,52192.00
2023-01-17T09:52:27.648Z,51200.00
2023-01-17T09:53:27.587Z,37248.00
2023-01-17T09:54:27.571Z,35648.00
2023-01-17T09:55:27.616Z,24928.00
2023-01-17T09:56:27.526Z,19360.00
2023-01-17T09:57:27.560Z,24672.00
2023-01-17T09:58:27.497Z,37184.00
2023-01-17T09:59:33.270Z,35200.00
2023-01-17T10:00:28.529Z,20000.00
2023-01-17T10:01:27.795Z,17952.00
2023-01-17T10:02:27.675Z,13056.00
2023-01-17T10:03:27.587Z,12964.00
2023-01-17T10:04:27.496Z,14540.00
2023-01-17T10:05:27.440Z,60512.00
2023-01-17T10:06:27.463Z,20192.00
2023-01-17T10:07:27.427Z,15904.00
2023-01-17T10:08:27.414Z,21184.00
2023-01-17T10:09:27.386Z,57312.00
2023-01-17T10:10:27.405Z,22080.00
2023-01-17T10:11:27.367Z,16704.00
2023-01-17T10:12:27.393Z,20768.00
2023-01-17T10:13:27.395Z,24864.00
2023-01-17T10:14:27.331Z,21472.00
2023-01-17T10:15:27.332Z,17728.00
2023-01-17T10:16:27.332Z,17504.00
2023-01-17T10:17:27.345Z,18240.00
2023-01-17T10:18:30.427Z,64224.00
2023-01-17T10:19:28.317Z,44416.00
2023-01-17T10:20:27.329Z,14304.00
2023-01-17T10:21:27.265Z,14028.00
2023-01-17T10:22:27.269Z,12272.00
2023-01-17T10:23:27.301Z,11220.00
2023-01-17T10:24:27.247Z,13088.00
2023-01-17T10:25:27.213Z,12256.00
2023-01-17T10:26:27.245Z,12780.00
2023-01-17T10:27:28.179Z,12608.00
2023-01-17T10:28:27.198Z,17984.00
2023-01-17T10:29:27.202Z,14276.00
2023-01-17T10:30:27.181Z,35936.00
2023-01-17T10:31:27.158Z,17536.00
2023-01-17T10:32:27.181Z,7724.00
2023-01-17T10:33:27.179Z,5624.00
2023-01-17T10:34:27.111Z,6184.00
2023-01-17T10:35:27.169Z,7104.00
2023-01-17T10:36:27.114Z,8332.00
2023-01-17T10:37:27.159Z,10072.00
2023-01-17T10:38:27.086Z,8576.00
2023-01-17T10:39:27.071Z,7528.00
2023-01-17T10:40:27.057Z,7140.00
2023-01-17T10:41:27.062Z,6996.00
2023-01-17T10:42:27.065Z,6736.00
2023-01-17T10:43:27.033Z,6732.00
2023-01-17T10:44:27.089Z,7128.00
2023-01-17T10:45:27.013Z,8020.00
2023-01-17T10:46:27.058Z,8284.00
2023-01-17T10:47:26.994Z,7412.00
2023-01-17T10:48:26.978Z,6620.00
2023-01-17T10:49:26.959Z,6464.00
2023-01-17T10:50:26.982Z,6616.00
2023-01-17T10:51:26.945Z,6620.00
2023-01-17T10:52:26.938Z,7560.00
2023-01-17T10:53:26.940Z,8908.00
2023-01-17T10:54:26.915Z,10472.00
2023-01-17T10:55:26.906Z,15936.00
2023-01-17T10:56:26.947Z,35680.00
2023-01-17T10:57:26.878Z,27072.00
2023-01-17T10:59:00.711Z,44256.00
2023-01-17T10:59:26.895Z,41600.00
2023-01-17T11:00:26.871Z,25440.00
2023-01-17T11:01:26.917Z,28576.00
2023-01-17T11:02:27.049Z,42848.00
2023-01-17T11:03:26.866Z,22816.00
2023-01-17T11:04:26.849Z,38592.00
2023-01-17T11:05:26.786Z,18528.00
2023-01-17T11:06:26.807Z,17344.00
2023-01-17T11:07:26.866Z,20768.00
2023-01-17T11:08:26.788Z,19968.00
2023-01-17T11:09:26.858Z,46592.00
2023-01-17T11:10:26.777Z,58592.00
2023-01-17T11:11:26.727Z,80160.00
2023-01-17T11:12:26.739Z,80160.00
2023-01-17T11:13:26.715Z,82048.00
2023-01-17T11:14:26.719Z,73376.00
2023-01-17T11:15:26.677Z,57824.00
2023-01-17T11:16:27.688Z,66496.00
2023-01-17T11:17:27.757Z,82432.00
2023-01-17T11:18:26.745Z,81664.00
2023-01-17T11:19:26.773Z,79168.00
2023-01-17T11:20:26.699Z,78944.00
2023-01-17T11:21:26.756Z,34656.00
2023-01-17T11:22:26.685Z,26272.00
2023-01-17T11:23:26.636Z,18688.00
2023-01-17T11:24:26.766Z,20960.00
2023-01-17T11:25:26.623Z,19840.00
2023-01-17T11:26:26.618Z,16224.00
2023-01-17T11:27:26.599Z,15968.00
2023-01-17T11:28:26.579Z,23360.00
2023-01-17T11:29:26.606Z,20416.00
2023-01-17T11:30:26.571Z,13220.00
2023-01-17T11:31:26.669Z,12572.00
2023-01-17T11:32:26.520Z,14728.00
2023-01-17T11:33:27.890Z,76512.00
2023-01-17T11:34:26.531Z,71456.00
2023-01-17T11:35:26.540Z,77376.00
2023-01-17T11:36:26.479Z,81984.00
2023-01-17T11:37:26.485Z,78304.00
2023-01-17T11:38:26.476Z,72000.00
2023-01-17T11:39:26.522Z,71488.00
2023-01-17T11:40:26.410Z,76192.00
2023-01-17T11:41:26.459Z,80192.00
2023-01-17T11:42:26.456Z,81600.00
2023-01-17T11:43:26.413Z,73824.00
2023-01-17T11:44:26.426Z,58976.00
2023-01-17T11:45:26.393Z,54048.00
2023-01-17T11:46:26.387Z,41024.00
2023-01-17T11:47:26.383Z,31200.00
2023-01-17T11:48:26.360Z,28416.00
2023-01-17T11:49:26.363Z,53568.00
2023-01-17T11:50:26.362Z,51584.00
2023-01-17T11:51:26.381Z,43680.00
2023-01-17T11:52:26.391Z,14576.00
2023-01-17T11:53:26.287Z,9528.00
2023-01-17T11:54:26.314Z,10540.00
2023-01-17T11:55:26.343Z,23616.00
2023-01-17T11:56:26.321Z,65184.00
2023-01-17T11:57:26.333Z,68768.00
2023-01-17T11:58:26.304Z,69408.00
2023-01-17T11:59:26.221Z,66080.00
2023-01-17T12:00:26.208Z,59456.00
2023-01-17T12:01:26.242Z,59264.00
2023-01-17T12:02:26.200Z,64128.00
2023-01-17T12:03:26.228Z,64544.00
2023-01-17T12:04:26.200Z,63008.00
2023-01-17T12:05:26.210Z,64896.00
2023-01-17T12:06:26.288Z,67328.00
2023-01-17T12:07:26.108Z,42912.00
2023-01-17T12:08:26.155Z,14424.00
2023-01-17T12:09:26.142Z,44736.00
2023-01-17T12:10:26.162Z,67584.00
2023-01-17T12:11:26.125Z,70752.00
2023-01-17T12:12:26.161Z,65024.00
2023-01-17T12:13:26.149Z,57504.00
2023-01-17T12:14:26.089Z,60192.00
2023-01-17T12:15:26.069Z,65632.00
2023-01-17T12:16:26.085Z,58752.00
2023-01-17T12:17:26.067Z,59392.00
2023-01-17T12:18:26.021Z,64608.00
2023-01-17T12:19:26.141Z,59520.00
2023-01-17T12:20:26.010Z,56032.00
2023-01-17T12:21:26.008Z,53856.00
2023-01-17T12:22:26.111Z,58112.00
2023-01-17T12:23:26.035Z,62368.00
2023-01-17T12:24:25.969Z,61856.00
2023-01-17T12:25:26.001Z,61760.00
2023-01-17T12:26:25.998Z,23712.00
2023-01-17T12:27:25.945Z,16448.00
2023-01-17T12:28:26.674Z,24768.00
2023-01-17T12:29:25.879Z,46400.00
2023-01-17T12:30:25.857Z,14452.00
2023-01-17T12:31:26.008Z,26432.00
2023-01-17T12:32:25.859Z,36064.00
2023-01-17T12:33:25.830Z,26944.00
2023-01-17T12:34:25.809Z,39776.00
2023-01-17T12:35:25.843Z,42464.00
2023-01-17T12:36:25.791Z,51552.00
2023-01-17T12:37:25.846Z,28608.00
2023-01-17T12:38:32.611Z,29952.00
2023-01-17T12:39:27.817Z,48992.00
2023-01-17T12:40:25.827Z,58400.00
2023-01-17T12:41:25.750Z,57760.00